createdAt,value
2022-11-13T00:01:03.203Z,76.52
2022-11-13T00:05:08.016Z,76.54
2022-11-13T00:10:07.777Z,76.54
2022-11-13T00:15:08.254Z,76.55
2022-11-13T00:20:08.021Z,76.55
2022-11-13T00:25:07.715Z,76.55
2022-11-13T00:30:08.433Z,76.57
2022-11-13T00:35:08.139Z,76.56
2022-11-13T00:40:07.857Z,76.59
2022-11-13T00:45:08.576Z,76.58
2022-11-13T00:50:08.296Z,76.61
2022-11-13T00:55:07.981Z,76.59
2022-11-13T01:00:07.698Z,76.6
2022-11-13T01:05:08.283Z,76.61
2022-11-13T01:10:08.042Z,76.62
2022-11-13T01:15:07.735Z,76.61
2022-11-13T01:20:08.448Z,76.64
2022-11-13T01:25:08.430Z,76.63
2022-11-13T01:30:08.144Z,76.65
2022-11-13T01:35:07.859Z,76.63
2022-11-13T01:40:08.565Z,76.64
2022-11-13T01:45:08.236Z,76.64
2022-11-13T01:50:07.940Z,76.65
2022-11-13T01:55:07.635Z,76.64
2022-11-13T02:00:08.327Z,76.64
2022-11-13T02:05:08.019Z,76.66
2022-11-13T02:10:07.735Z,76.66
2022-11-13T02:15:08.444Z,76.66
2022-11-13T02:20:08.144Z,76.64
2022-11-13T02:25:07.844Z,76.64
2022-11-13T02:30:10.629Z,76.66
2022-11-13T02:35:08.515Z,76.66
2022-11-13T02:40:08.210Z,76.66
2022-11-13T02:45:07.891Z,76.66
2022-11-13T02:50:08.587Z,76.66
2022-11-13T02:55:08.268Z,76.67
2022-11-13T03:00:12.394Z,76.67
2022-11-13T03:05:13.274Z,76.68
2022-11-13T03:10:08.648Z,76.69
2022-11-13T03:15:08.340Z,76.67
2022-11-13T03:20:08.061Z,76.67
2022-11-13T03:25:10.743Z,76.66
2022-11-13T03:30:07.834Z,76.68
2022-11-13T03:35:08.568Z,76.67
2022-11-13T03:40:08.292Z,76.68
2022-11-13T03:45:07.997Z,76.65
2022-11-13T03:50:07.734Z,76.66
2022-11-13T03:55:08.445Z,76.67
2022-11-13T04:00:08.149Z,76.69
2022-11-13T04:05:07.841Z,76.67
2022-11-13T04:10:08.543Z,76.66
2022-11-13T04:15:08.212Z,76.64
2022-11-13T04:20:07.924Z,76.66
2022-11-13T04:25:08.677Z,76.66
2022-11-13T04:30:08.559Z,76.63
2022-11-13T04:35:08.242Z,76.64
2022-11-13T04:40:07.965Z,76.65
2022-11-13T04:45:07.647Z,76.64
2022-11-13T04:50:08.359Z,76.67
2022-11-13T04:55:08.059Z,76.64
2022-11-13T05:00:07.774Z,76.68
2022-11-13T05:05:05.285Z,76.67
2022-11-13T05:10:02.270Z,76.67
2022-11-13T05:15:02.012Z,76.67
2022-11-13T05:20:01.831Z,76.66
2022-11-13T05:25:02.561Z,76.65
2022-11-13T05:30:02.209Z,76.68
2022-11-13T05:35:02.018Z,76.7
2022-11-13T05:40:01.735Z,76.7
2022-11-13T05:45:02.608Z,76.71
2022-11-13T05:50:02.461Z,76.71
2022-11-13T05:55:02.288Z,76.72
2022-11-13T06:00:02.169Z,76.73
2022-11-13T06:05:01.920Z,76.75
2022-11-13T06:10:02.912Z,76.73
2022-11-13T06:15:02.751Z,76.77
2022-11-13T06:20:02.516Z,76.79
2022-11-13T06:25:02.392Z,76.8
2022-11-13T06:30:02.334Z,76.81
2022-11-13T06:35:02.245Z,76.82
2022-11-13T06:40:02.157Z,76.81
2022-11-13T06:45:02.056Z,76.83
2022-11-13T06:50:02.651Z,76.85
2022-11-13T06:55:02.558Z,76.85
2022-11-13T07:00:02.494Z,76.84
2022-11-13T07:05:02.310Z,76.86
2022-11-13T07:10:02.260Z,76.89
2022-11-13T07:15:02.079Z,76.88
2022-11-13T07:20:01.880Z,76.89
2022-11-13T07:25:02.668Z,76.91
2022-11-13T07:30:04.083Z,76.9
2022-11-13T07:35:02.025Z,76.92
2022-11-13T07:40:01.839Z,76.94
2022-11-13T07:45:02.724Z,76.96
2022-11-13T07:50:08.302Z,76.94
2022-11-13T07:55:02.648Z,76.95
2022-11-13T08:00:02.541Z,76.97
2022-11-13T08:05:02.324Z,76.96
2022-11-13T08:10:02.172Z,76.97
2022-11-13T08:15:01.952Z,76.98
2022-11-13T08:20:01.792Z,76.97
2022-11-13T08:25:02.658Z,76.96
2022-11-13T08:30:02.421Z,76.98
2022-11-13T08:35:02.236Z,76.98
2022-11-13T08:40:02.006Z,76.97
2022-11-13T08:45:01.772Z,76.97
2022-11-13T08:50:02.507Z,76.96
2022-11-13T08:55:02.363Z,76.97
2022-11-13T09:00:02.186Z,76.96
2022-11-13T09:05:02.089Z,76.93
2022-11-13T09:10:02.017Z,76.91
2022-11-13T09:15:01.985Z,76.91
2022-11-13T09:20:04.238Z,76.89
2022-11-13T09:25:02.348Z,76.83
2022-11-13T09:30:02.191Z,76.82
2022-11-13T09:35:02.136Z,76.78
2022-11-13T09:40:02.116Z,76.79
2022-11-13T09:45:02.013Z,76.7
2022-11-13T09:50:01.779Z,76.66
2022-11-13T09:55:02.617Z,76.59
2022-11-13T10:00:02.451Z,76.57
2022-11-13T10:05:02.293Z,76.49
2022-11-13T10:10:02.100Z,76.47
2022-11-13T10:15:01.876Z,76.4
2022-11-13T10:20:02.689Z,76.35
2022-11-13T10:25:02.536Z,76.32
2022-11-13T10:30:02.338Z,76.27
2022-11-13T10:35:02.176Z,76.22
2022-11-13T10:40:02.124Z,76.19
2022-11-13T10:45:02.055Z,76.12
2022-11-13T10:50:01.852Z,76.05
2022-11-13T10:55:02.627Z,76.01
2022-11-13T11:00:02.566Z,75.95
2022-11-13T11:05:02.376Z,75.91
2022-11-13T11:10:02.394Z,75.85
2022-11-13T11:15:02.515Z,75.8
2022-11-13T11:20:12.363Z,75.76
2022-11-13T11:25:02.193Z,75.7
2022-11-13T11:30:02.033Z,75.66
2022-11-13T11:35:01.873Z,75.62
2022-11-13T11:40:02.683Z,75.59
2022-11-13T11:45:02.675Z,75.52
2022-11-13T11:50:02.561Z,75.51
2022-11-13T11:55:02.439Z,75.46
2022-11-13T12:00:02.324Z,75.53
2022-11-13T12:05:02.370Z,75.37
2022-11-13T12:10:02.311Z,75.32
2022-11-13T12:15:02.354Z,75.3
2022-11-13T12:20:02.297Z,75.25
2022-11-13T12:25:02.095Z,75.25
2022-11-13T12:30:01.969Z,75.27
2022-11-13T12:35:06.452Z,75.26
2022-11-13T12:40:02.299Z,75.26
2022-11-13T12:45:02.008Z,75.25
2022-11-13T12:50:01.755Z,75.25
2022-11-13T12:55:02.699Z,75.24
2022-11-13T13:00:02.591Z,75.26
2022-11-13T13:05:02.334Z,75.25
2022-11-13T13:10:02.063Z,75.28
2022-11-13T13:15:11.791Z,75.29
2022-11-13T13:20:02.552Z,75.29
2022-11-13T13:25:02.695Z,75.31
2022-11-13T13:30:02.534Z,75.32
2022-11-13T13:35:02.349Z,75.3
2022-11-13T13:40:12.178Z,75.3
2022-11-13T13:45:02.000Z,75.31
2022-11-13T13:50:01.833Z,75.29
2022-11-13T13:55:02.605Z,75.29
2022-11-13T14:00:02.403Z,75.3
2022-11-13T14:05:02.268Z,75.29
2022-11-13T14:10:02.067Z,75.28
2022-11-13T14:15:01.971Z,75.28
2022-11-13T14:20:01.760Z,75.26
2022-11-13T14:25:02.631Z,75.26
2022-11-13T14:30:02.535Z,75.26
2022-11-13T14:35:02.750Z,75.28
2022-11-13T14:40:02.668Z,75.28
2022-11-13T14:45:02.585Z,75.28
2022-11-13T14:50:02.496Z,75.25
2022-11-13T14:55:15.292Z,75.24
2022-11-13T15:00:02.778Z,75.24
2022-11-13T15:05:02.520Z,75.23
2022-11-13T15:10:02.352Z,75.24
2022-11-13T15:15:02.089Z,75.24
2022-11-13T15:20:05.429Z,75.24
2022-11-13T15:25:02.161Z,75.24
2022-11-13T15:30:02.122Z,75.22
2022-11-13T15:35:02.000Z,75.27
2022-11-13T15:40:01.983Z,75.28
2022-11-13T15:45:01.834Z,75.28
2022-11-13T15:50:13.486Z,75.28
2022-11-13T15:55:02.448Z,75.33
2022-11-13T16:00:02.525Z,75.31
2022-11-13T16:05:02.369Z,75.34
2022-11-13T16:10:02.135Z,75.36
2022-11-13T16:15:01.985Z,75.37
2022-11-13T16:20:01.808Z,75.36
2022-11-13T16:25:02.569Z,75.42
2022-11-13T16:30:06.630Z,75.43
2022-11-13T16:35:02.019Z,75.46
2022-11-13T16:40:01.807Z,75.47
2022-11-13T16:45:02.576Z,75.51
2022-11-13T16:50:02.502Z,75.53
2022-11-13T16:55:06.365Z,75.56
2022-11-13T17:00:02.563Z,75.56
2022-11-13T17:05:02.294Z,75.58
2022-11-13T17:10:29.595Z,75.61
2022-11-13T17:15:01.952Z,75.67
2022-11-13T17:20:01.890Z,75.68
2022-11-13T17:25:02.749Z,75.72
2022-11-13T17:30:02.783Z,75.75
2022-11-13T17:35:02.572Z,75.8
2022-11-13T17:40:02.638Z,75.8
2022-11-13T17:45:02.574Z,75.84
2022-11-13T17:50:07.471Z,75.87
2022-11-13T17:55:02.525Z,75.91
2022-11-13T18:00:02.387Z,75.93
2022-11-13T18:05:02.171Z,75.96
2022-11-13T18:10:02.038Z,75.96
2022-11-13T18:15:01.868Z,75.98
2022-11-13T18:20:02.828Z,76.02
2022-11-13T18:25:02.651Z,76.06
2022-11-13T18:30:02.453Z,76.07
2022-11-13T18:35:02.289Z,76.07
2022-11-13T18:40:02.112Z,76.09
2022-11-13T18:45:05.946Z,76.12
2022-11-13T18:50:02.189Z,76.12
2022-11-13T18:55:02.048Z,76.15
2022-11-13T19:00:01.875Z,76.16
2022-11-13T19:05:02.678Z,76.17
2022-11-13T19:10:02.539Z,76.18
2022-11-13T19:15:02.337Z,76.2
2022-11-13T19:20:02.200Z,76.22
2022-11-13T19:25:02.011Z,76.23
2022-11-13T19:30:01.970Z,76.26
2022-11-13T19:35:01.771Z,76.29
2022-11-13T19:40:02.630Z,76.26
2022-11-13T19:45:02.453Z,76.3
2022-11-13T19:50:02.369Z,76.34
2022-11-13T19:55:02.282Z,76.33
2022-11-13T20:00:02.137Z,76.36
2022-11-13T20:05:02.063Z,76.36
2022-11-13T20:10:02.004Z,76.38
2022-11-13T20:15:01.908Z,76.39
2022-11-13T20:20:02.696Z,76.38
2022-11-13T20:25:02.601Z,76.42
2022-11-13T20:30:02.505Z,76.45
2022-11-13T20:35:02.705Z,76.45
2022-11-13T20:40:02.528Z,76.48
2022-11-13T20:45:02.460Z,76.49
2022-11-13T20:50:02.238Z,76.48
2022-11-13T20:55:02.071Z,76.51
2022-11-13T21:00:01.883Z,76.52
2022-11-13T21:05:02.667Z,76.56
2022-11-13T21:10:02.525Z,76.58
2022-11-13T21:15:02.779Z,76.6
2022-11-13T21:20:03.265Z,76.62
2022-11-13T21:25:02.109Z,76.66
2022-11-13T21:30:01.940Z,76.65
2022-11-13T21:35:02.803Z,76.7
2022-11-13T21:40:02.770Z,76.69
2022-11-13T21:45:02.535Z,76.71
2022-11-13T21:50:02.456Z,76.72
2022-11-13T21:55:02.366Z,76.74
2022-11-13T22:00:02.363Z,76.74
2022-11-13T22:05:02.255Z,76.75
2022-11-13T22:10:07.048Z,76.75
2022-11-13T22:15:02.504Z,76.73
2022-11-13T22:20:02.502Z,76.73
2022-11-13T22:25:02.283Z,76.76
2022-11-13T22:30:02.063Z,76.75
2022-11-13T22:35:07.801Z,76.77
2022-11-13T22:40:08.512Z,76.74
2022-11-13T22:45:22.719Z,76.75
2022-11-13T22:50:07.759Z,76.77
2022-11-13T22:55:08.453Z,76.8
2022-11-13T23:00:08.188Z,76.78
2022-11-13T23:05:07.902Z,76.78
2022-11-13T23:10:08.647Z,76.79
2022-11-13T23:15:08.375Z,76.78
2022-11-13T23:20:08.098Z,76.8
2022-11-13T23:25:07.806Z,76.8
2022-11-13T23:30:08.502Z,76.81
2022-11-13T23:35:08.354Z,76.8
2022-11-13T23:40:08.067Z,76.8
2022-11-13T23:45:07.820Z,76.81
2022-11-13T23:50:08.538Z,76.81
2022-11-13T23:55:08.246Z,76.83
